Time;durP1;ratioP1;P1;durP2;ratioP2;P2;SDS_P1;SDS_P2;PMS_P1;PMS_P2;Temp;Humidity;BMP_temperature;BMP_pressure;BME280_temperature;BME280_humidity;BME280_pressure;Samples;Min_cycle;Max_cycle;Signal;HPM_P1;HPM_P2
2023/07/04 03:59:50;;;;;;;7.30;5.40;;;17.60;99.90;;;;;;6155721;23;20473;-90
2023/07/04 04:02:23;;;;;;;11.17;6.93;;;17.60;99.90;;;;;;6175785;23;20931;-90
2023/07/04 04:04:55;;;;;;;6.40;5.37;;;17.60;1.00;;;;;;6169516;23;20388;-89
2023/07/04 04:07:23;;;;;;;8.13;4.93;;;;;;;;;;6183584;23;20478;-89
2023/07/04 04:09:54;;;;;;;8.60;5.20;;;17.60;99.90;;;;;;6153999;23;20476;-89
2023/07/04 04:12:26;;;;;;;7.33;4.90;;;17.60;99.90;;;;;;6154349;23;20417;-89
2023/07/04 04:15:00;;;;;;;9.70;5.30;;;17.60;99.90;;;;;;6154690;23;20437;-88
2023/07/04 04:17:29;;;;;;;9.43;4.73;;;;;;;;;;6134750;23;20403;-90
2023/07/04 04:19:56;;;;;;;9.03;5.53;;;17.60;99.90;;;;;;6131303;23;20447;-90
2023/07/04 04:22:25;;;;;;;7.90;4.87;;;17.60;99.90;;;;;;6136452;23;20436;-89
2023/07/04 04:24:56;;;;;;;7.23;4.20;;;17.60;99.90;;;;;;6154032;23;20402;-89
2023/07/04 04:27:26;;;;;;;8.23;5.60;;;17.60;99.90;;;;;;6155132;23;20468;-89
2023/07/04 04:29:57;;;;;;;9.37;5.10;;;17.60;99.90;;;;;;6154857;23;20956;-89
2023/07/04 04:32:29;;;;;;;13.90;6.20;;;17.50;99.90;;;;;;6155405;23;20377;-89
2023/07/04 04:35:39;;;;;;;7.43;4.40;;;17.50;99.90;;;;;;6154851;23;20456;-88
2023/07/04 05:39:28;;;;;;;8.97;5.47;;;18.60;1.00;;;;;;5891985;24;20415;-89
2023/07/04 05:45:33;;;;;;;12.90;5.23;;;18.40;1.00;;;;;;6165155;23;20444;-91
2023/07/04 05:48:57;;;;;;;9.30;4.57;;;18.50;99.90;;;;;;6042253;23;20419;-93
2023/07/04 05:55:00;;;;;;;10.43;6.23;;;18.50;99.90;;;;;;6021324;23;20480;-93
2023/07/04 06:04:43;;;;;;;13.07;4.70;;;18.40;99.90;;;;;;6054030;23;20399;-93
2023/07/04 06:10:04;;;;;;;7.90;5.50;;;18.60;1.00;;;;;;6178190;23;20463;-91
2023/07/04 06:13:14;;;;;;;8.63;5.43;;;18.50;1.00;;;;;;6182033;23;20507;-93
2023/07/04 06:26:58;;;;;;;11.30;9.57;;;18.70;99.90;;;;;;6174393;23;20424;-93
2023/07/04 07:22:18;;;;;;;;;;;;;;;;;;;;;
2023/07/04 07:28:27;;;;;;;9.93;5.40;;;19.40;99.90;;;;;;6164682;23;20413;-94
2023/07/04 07:31:32;;;;;;;5.07;4.57;;;18.90;99.90;;;;;;6182066;23;20488;-94
2023/07/04 07:34:03;;;;;;;6.23;4.43;;;19.60;99.90;;;;;;6141052;23;20421;-91
2023/07/04 07:36:32;;;;;;;10.10;4.90;;;19.50;99.90;;;;;;6133127;23;20512;-89
2023/07/04 07:39:03;;;;;;;6.77;4.70;;;19.50;99.90;;;;;;6133206;23;20795;-89
2023/07/04 07:41:32;;;;;;;6.80;4.10;;;19.90;14.50;;;;;;6137735;23;20425;-90
2023/07/04 07:43:59;;;;;;;7.23;4.60;;;19.70;99.90;;;;;;6136158;23;20409;-89
2023/07/04 07:46:26;;;;;;;4.53;3.80;;;19.70;99.90;;;;;;6135504;23;20925;-89
2023/07/04 07:48:53;;;;;;;5.77;4.40;;;19.70;99.90;;;;;;6138461;23;20403;-88
2023/07/04 07:51:21;;;;;;;6.53;3.60;;;19.70;99.90;;;;;;6154941;23;20433;-88
2023/07/04 07:53:49;;;;;;;6.60;4.67;;;19.90;99.90;;;;;;6148440;23;20409;-88
2023/07/04 07:56:20;;;;;;;4.87;3.33;;;19.80;99.90;;;;;;6138667;23;20528;-89
2023/07/04 07:58:47;;;;;;;5.50;4.00;;;19.90;99.90;;;;;;6152738;23;20412;-88
2023/07/04 08:01:16;;;;;;;5.73;3.73;;;20.00;59.90;;;;;;6152684;23;20413;-89
2023/07/04 08:03:44;;;;;;;15.30;5.20;;;19.90;99.90;;;;;;6147372;23;20421;-89
2023/07/04 08:06:21;;;;;;;9.33;4.87;;;19.80;99.90;;;;;;6135854;23;20405;-88
2023/07/04 08:08:48;;;;;;;6.10;3.43;;;19.90;99.90;;;;;;6138682;23;20400;-89
2023/07/04 08:11:17;;;;;;;4.80;3.13;;;19.90;99.90;;;;;;6136616;23;20412;-88
2023/07/04 08:13:44;;;;;;;4.97;3.13;;;19.70;99.90;;;;;;6136849;23;20433;-89
2023/07/04 08:16:12;;;;;;;5.23;3.00;;;19.80;99.90;;;;;;6143206;23;20500;-88
2023/07/04 08:18:40;;;;;;;5.83;4.30;;;20.30;99.90;;;;;;6148185;23;20416;-89
2023/07/04 08:21:06;;;;;;;5.60;3.40;;;20.20;1.00;;;;;;6152175;23;20421;-88
2023/07/04 08:23:33;;;;;;;8.07;3.40;;;20.00;99.90;;;;;;6154151;23;20460;-89
2023/07/04 08:26:00;;;;;;;7.30;3.43;;;19.90;99.90;;;;;;6154711;23;20405;-88
2023/07/04 08:28:28;;;;;;;11.13;4.53;;;20.10;99.90;;;;;;6154778;23;20477;-89
2023/07/04 08:31:04;;;;;;;4.80;3.30;;;20.20;1.00;;;;;;6154484;23;20421;-89
2023/07/04 08:33:31;;;;;;;5.37;3.37;;;20.40;99.90;;;;;;6155090;23;20373;-87
2023/07/04 08:35:59;;;;;;;4.13;2.83;;;20.50;99.90;;;;;;6152094;23;20920;-88
2023/07/04 08:38:27;;;;;;;10.60;4.00;;;20.20;99.90;;;;;;6141729;23;20448;-89
2023/07/04 08:40:54;;;;;;;7.47;3.20;;;20.60;99.90;;;;;;6139372;23;20496;-89
2023/07/04 08:43:29;;;;;;;10.97;6.17;;;20.40;99.90;;;;;;6143786;23;20415;-88
2023/07/04 08:45:58;;;;;;;10.43;5.70;;;20.40;99.90;;;;;;6154699;23;20397;-88
2023/07/04 08:48:27;;;;;;;6.97;3.10;;;20.50;99.90;;;;;;6139967;23;20412;-89
2023/07/04 08:50:59;;;;;;;14.63;3.67;;;20.50;99.90;;;;;;6137201;23;20764;-89
2023/07/04 08:53:27;;;;;;;4.10;2.90;;;20.70;99.90;;;;;;6147104;23;20460;-89
2023/07/04 08:56:01;;;;;;;8.63;5.10;;;21.00;99.90;;;;;;6144136;23;20437;-89
2023/07/04 08:58:35;;;;;;;3.83;3.20;;;20.80;99.90;;;;;;6138578;23;20730;-89
2023/07/04 09:01:13;;;;;;;5.13;3.63;;;21.00;1.00;;;;;;6137215;23;20431;-89
2023/07/04 09:03:46;;;;;;;4.67;3.63;;;21.00;99.90;;;;;;6136958;23;20418;-89
2023/07/04 09:06:20;;;;;;;5.83;2.67;;;21.00;1.00;;;;;;6152256;23;20414;-88
2023/07/04 09:08:57;;;;;;;4.67;2.80;;;21.00;99.90;;;;;;6154892;23;20381;-87
2023/07/04 09:11:24;;;;;;;3.67;2.80;;;21.00;99.90;;;;;;6154913;23;20412;-86
2023/07/04 09:13:56;;;;;;;8.30;3.40;;;21.00;99.90;;;;;;6152720;23;20878;-89
2023/07/04 09:16:28;;;;;;;4.83;3.53;;;21.00;1.00;;;;;;6140884;23;20433;-90
2023/07/04 09:18:58;;;;;;;5.70;3.37;;;21.00;99.90;;;;;;6145442;23;20415;-88
2023/07/04 09:21:26;;;;;;;4.00;3.03;;;21.10;99.90;;;;;;6143367;23;20508;-88
2023/07/04 09:23:56;;;;;;;4.47;3.53;;;21.00;99.90;;;;;;6152079;23;20417;-89
2023/07/04 09:26:26;;;;;;;6.60;3.43;;;21.00;99.90;;;;;;6138078;23;20465;-89
2023/07/04 09:28:55;;;;;;;3.90;2.73;;;21.10;99.90;;;;;;6136582;23;20425;-90
2023/07/04 09:31:29;;;;;;;6.60;3.07;;;20.60;99.90;;;;;;6134658;23;20923;-90
2023/07/04 09:33:57;;;;;;;3.23;2.73;;;20.80;99.90;;;;;;6145311;23;20397;-89
2023/07/04 09:36:30;;;;;;;5.77;3.70;;;20.60;99.90;;;;;;6150712;23;20454;-89
2023/07/04 09:39:00;;;;;;;7.00;2.30;;;20.60;1.00;;;;;;6154189;23;20396;-88
2023/07/04 09:41:31;;;;;;;5.67;3.17;;;20.50;1.00;;;;;;6153905;23;20417;-88
2023/07/04 09:44:13;;;;;;;5.63;3.60;;;20.70;99.90;;;;;;6154510;23;20405;-88
2023/07/04 09:46:48;;;;;;;6.37;3.70;;;21.10;1.00;;;;;;6149019;23;20863;-88
2023/07/04 09:49:21;;;;;;;3.70;3.40;;;20.70;99.90;;;;;;6144656;23;20393;-90
2023/07/04 09:51:59;;;;;;;5.33;3.30;;;20.90;99.90;;;;;;6138420;23;20489;-90
2023/07/04 09:54:27;;;;;;;3.00;2.80;;;21.10;99.90;;;;;;6134907;23;20507;-90
2023/07/04 09:56:54;;;;;;;4.10;3.20;;;;;;;;;;6137754;23;20775;-90
2023/07/04 09:59:26;;;;;;;6.20;3.30;;;21.30;99.90;;;;;;6134204;23;20487;-90
2023/07/04 10:01:59;;;;;;;4.60;3.40;;;21.40;99.90;;;;;;6136314;23;20436;-88
2023/07/04 10:04:37;;;;;;;5.23;3.20;;;21.40;99.90;;;;;;6136879;23;20395;-89
2023/07/04 10:07:13;;;;;;;5.80;3.50;;;21.30;99.90;;;;;;6138289;23;20394;-89
2023/07/04 10:09:44;;;;;;;2.50;2.27;;;21.30;99.90;;;;;;6136036;23;20746;-89
2023/07/04 10:12:13;;;;;;;2.63;2.07;;;21.30;99.90;;;;;;6139673;23;20435;-89
2023/07/04 10:14:46;;;;;;;6.60;2.20;;;21.30;99.90;;;;;;6138589;23;20416;-89
2023/07/04 10:17:19;;;;;;;4.13;2.23;;;21.00;1.00;;;;;;6145731;23;20425;-87
2023/07/04 10:19:48;;;;;;;4.10;3.70;;;21.10;99.90;;;;;;6154602;23;20399;-88
2023/07/04 10:22:24;;;;;;;4.23;3.17;;;21.10;99.90;;;;;;6154230;23;20427;-88
2023/07/04 10:24:51;;;;;;;3.30;3.07;;;21.20;99.90;;;;;;6145412;23;20404;-89
2023/07/04 10:27:21;;;;;;;3.53;2.30;;;21.00;1.00;;;;;;6134834;23;20410;-89
2023/07/04 10:29:54;;;;;;;3.93;2.63;;;21.30;99.90;;;;;;6134813;23;20444;-89
2023/07/04 10:32:23;;;;;;;7.87;2.90;;;21.20;99.90;;;;;;6133570;23;20520;-89
2023/07/04 10:34:51;;;;;;;3.90;2.77;;;21.30;99.90;;;;;;6135417;23;20449;-89
2023/07/04 10:37:22;;;;;;;5.37;2.50;;;21.40;99.90;;;;;;6133483;23;20464;-89
2023/07/04 10:39:52;;;;;;;5.47;3.30;;;21.50;99.90;;;;;;6138282;23;20486;-88
2023/07/04 10:42:26;;;;;;;9.33;2.90;;;21.70;99.90;;;;;;6138452;23;20436;-88
2023/07/04 10:44:56;;;;;;;6.57;2.90;;;21.90;99.90;;;;;;6138059;23;20873;-88
2023/07/04 10:47:27;;;;;;;2.97;2.77;;;21.90;99.90;;;;;;6135442;23;20468;-89
2023/07/04 10:49:59;;;;;;;9.70;5.73;;;22.00;99.90;;;;;;6139253;23;20612;-89
2023/07/04 10:52:31;;;;;;;5.23;2.90;;;22.00;99.90;;;;;;6152156;23;20442;-88
2023/07/04 10:54:59;;;;;;;5.90;2.77;;;21.80;99.90;;;;;;6156287;23;20388;-87
2023/07/04 10:57:31;;;;;;;7.23;3.30;;;21.50;99.90;;;;;;6150456;23;20445;-89
2023/07/04 11:00:04;;;;;;;5.03;3.53;;;21.30;99.90;;;;;;6141836;23;20397;-89
2023/07/04 11:02:35;;;;;;;6.07;2.47;;;21.10;99.90;;;;;;6145099;23;20456;-89
2023/07/04 11:05:10;;;;;;;6.57;3.70;;;21.00;99.90;;;;;;6137331;23;20421;-89
2023/07/04 11:07:41;;;;;;;3.03;2.73;;;20.80;99.90;;;;;;6137690;23;20392;-89
2023/07/04 11:10:10;;;;;;;5.33;2.87;;;20.70;99.90;;;;;;6137750;23;20700;-88
2023/07/04 11:12:38;;;;;;;4.77;2.87;;;20.70;99.90;;;;;;6136546;23;20750;-89
2023/07/04 11:15:10;;;;;;;3.70;3.10;;;20.60;99.90;;;;;;6137423;23;20807;-88
2023/07/04 11:17:43;;;;;;;6.90;3.97;;;20.70;99.90;;;;;;6114620;23;20440;-89
2023/07/04 11:20:19;;;;;;;6.17;3.07;;;20.80;99.90;;;;;;6150425;23;20401;-88
2023/07/04 11:22:54;;;;;;;4.70;3.77;;;20.90;99.90;;;;;;6153284;23;20456;-89
2023/07/04 11:25:53;;;;;;;9.20;3.20;;;21.10;99.90;;;;;;6155360;23;20404;-87
2023/07/04 11:28:26;;;;;;;8.20;5.97;;;21.10;99.90;;;;;;6154686;23;20381;-88
2023/07/04 11:31:06;;;;;;;4.97;4.00;;;21.00;99.90;;;;;;6152897;23;20413;-89
2023/07/04 11:33:41;;;;;;;6.60;3.90;;;21.00;99.90;;;;;;6149551;23;20412;-89
2023/07/04 11:36:17;;;;;;;5.70;3.93;;;21.10;99.90;;;;;;6146831;23;20392;-89
2023/07/04 11:38:50;;;;;;;8.80;4.30;;;20.90;99.90;;;;;;6143639;23;20401;-89
2023/07/04 11:41:18;;;;;;;5.53;3.63;;;20.80;99.90;;;;;;6141839;23;20440;-88
2023/07/04 11:43:48;;;;;;;3.80;3.40;;;20.70;99.90;;;;;;6138563;23;20427;-88
2023/07/04 11:46:25;;;;;;;7.23;3.80;;;20.80;99.90;;;;;;6139960;23;20802;-88
2023/07/04 11:48:57;;;;;;;7.03;3.60;;;20.90;99.90;;;;;;6138295;23;20521;-89
2023/07/04 11:51:26;;;;;;;5.33;3.67;;;21.00;99.90;;;;;;6137487;23;20475;-88
2023/07/04 11:53:57;;;;;;;5.10;3.60;;;21.00;99.90;;;;;;6137631;23;20437;-89
2023/07/04 11:56:38;;;;;;;4.03;2.97;;;21.00;99.90;;;;;;6140880;23;20394;-90
2023/07/04 11:59:37;;;;;;;6.27;4.30;;;21.00;99.90;;;;;;6141118;23;20432;-89
2023/07/04 12:02:23;;;;;;;5.53;3.33;;;21.20;99.90;;;;;;6152234;23;20413;-89
2023/07/04 12:04:51;;;;;;;3.87;3.50;;;21.70;1.00;;;;;;6150917;23;20416;-87
2023/07/04 12:07:27;;;;;;;6.00;3.80;;;21.40;99.90;;;;;;6155144;23;20390;-89
2023/07/04 12:10:03;;;;;;;8.50;3.63;;;21.60;99.90;;;;;;6150284;23;20405;-89
2023/07/04 12:12:32;;;;;;;7.03;3.70;;;21.70;99.90;;;;;;6141196;23;20433;-90
2023/07/04 12:15:07;;;;;;;9.50;3.90;;;21.90;99.90;;;;;;6139735;23;20409;-90
2023/07/04 12:17:38;;;;;;;5.80;3.83;;;22.00;99.90;;;;;;6145604;23;20436;-89
2023/07/04 12:20:11;;;;;;;7.97;4.03;;;22.10;99.90;;;;;;6149008;23;20412;-90
2023/07/04 12:22:43;;;;;;;6.20;5.60;;;21.90;99.90;;;;;;6153167;23;20436;-89
2023/07/04 12:25:12;;;;;;;5.87;4.20;;;21.40;1.00;;;;;;6153600;23;20408;-88
2023/07/04 12:27:42;;;;;;;7.47;5.70;;;21.90;99.90;;;;;;6154636;23;20386;-88
2023/07/04 12:30:11;;;;;;;4.43;4.03;;;22.70;99.90;;;;;;6154542;23;20464;-89
2023/07/04 12:32:39;;;;;;;7.63;4.23;;;22.40;1.00;;;;;;6154235;23;20493;-87
2023/07/04 12:35:12;;;;;;;7.83;3.93;;;23.70;1.00;;;;;;6153366;23;20397;-89
2023/07/04 12:37:44;;;;;;;3.67;3.30;;;22.30;99.90;;;;;;6148705;23;20413;-89
2023/07/04 12:40:16;;;;;;;3.73;3.33;;;22.30;99.90;;;;;;6147338;23;20867;-87
2023/07/04 12:42:45;;;;;;;8.40;4.77;;;22.30;99.90;;;;;;6141104;23;20429;-90
2023/07/04 12:45:16;;;;;;;9.33;5.00;;;22.50;99.90;;;;;;6139897;23;20421;-90
2023/07/04 12:47:45;;;;;;;7.00;4.10;;;22.30;99.90;;;;;;6139177;23;20390;-90
2023/07/04 12:50:16;;;;;;;7.13;4.00;;;22.30;99.90;;;;;;6138559;23;20437;-88
2023/07/04 12:52:46;;;;;;;7.40;4.80;;;22.30;99.90;;;;;;6136149;23;20429;-89
2023/07/04 12:55:22;;;;;;;6.40;4.53;;;22.40;99.90;;;;;;6135802;23;20405;-89
2023/07/04 12:57:50;;;;;;;6.33;4.50;;;24.80;99.90;;;;;;6139954;23;20968;-90
2023/07/04 13:00:26;;;;;;;7.20;6.07;;;22.60;99.90;;;;;;6134611;23;20416;-89
2023/07/04 13:02:54;;;;;;;6.53;4.37;;;22.10;99.90;;;;;;6137173;23;20503;-89
2023/07/04 13:05:25;;;;;;;7.33;4.63;;;22.30;99.90;;;;;;6139516;23;20417;-89
2023/07/04 13:07:52;;;;;;;5.43;3.37;;;;;;;;;;6136944;23;20466;-89
2023/07/04 13:10:22;;;;;;;8.60;4.03;;;22.30;99.90;;;;;;6143635;23;20437;-89
2023/07/04 13:12:50;;;;;;;11.60;5.43;;;22.40;99.90;;;;;;6149670;23;20429;-89
2023/07/04 13:15:26;;;;;;;4.33;3.90;;;22.40;99.90;;;;;;6151257;23;20398;-89
2023/07/04 13:18:00;;;;;;;6.47;3.90;;;22.60;99.90;;;;;;6149455;23;20429;-88
2023/07/04 13:20:30;;;;;;;4.20;3.43;;;22.70;99.90;;;;;;6141939;23;20390;-89
2023/07/04 13:23:24;;;;;;;4.10;3.77;;;22.60;99.90;;;;;;6146437;23;20960;-91
2023/07/04 13:25:54;;;;;;;11.23;3.83;;;22.70;99.90;;;;;;6176765;23;20411;-92
2023/07/04 13:28:36;;;;;;;5.93;4.33;;;22.70;99.90;;;;;;6182148;23;20498;-92
2023/07/04 13:31:44;;;;;;;4.50;3.43;;;23.10;1.00;;;;;;6171943;23;20912;-93
2023/07/04 13:34:33;;;;;;;6.20;3.97;;;22.80;99.90;;;;;;5998383;24;20409;-92
2023/07/04 13:37:20;;;;;;;7.77;4.10;;;22.70;99.90;;;;;;6143436;23;20433;-92
2023/07/04 13:39:52;;;;;;;6.13;3.97;;;;;;;;;;6143954;23;20436;-92
2023/07/04 13:42:25;;;;;;;4.37;3.60;;;;;;;;;;6144226;23;20441;-91
2023/07/04 13:45:07;;;;;;;7.00;4.00;;;22.70;99.90;;;;;;6145081;23;20401;-91
2023/07/04 13:50:55;;;;;;;7.20;3.53;;;22.90;99.90;;;;;;6149074;23;20401;-91
2023/07/04 13:56:35;;;;;;;4.87;3.00;;;23.00;99.90;;;;;;6091200;23;20405;-91
2023/07/04 13:59:04;;;;;;;5.07;3.00;;;;;;;;;;6143667;23;20436;-92
2023/07/04 14:01:35;;;;;;;4.60;3.73;;;;;;;;;;6138825;23;20428;-92
2023/07/04 14:04:04;;;;;;;3.33;3.03;;;22.40;99.90;;;;;;6143186;23;20401;-92
2023/07/04 14:06:51;;;;;;;3.63;3.33;;;22.20;1.00;;;;;;6141812;23;20417;-91
2023/07/04 14:09:31;;;;;;;3.70;2.77;;;22.50;1.00;;;;;;6146079;23;20389;-91
2023/07/04 14:12:24;;;;;;;4.77;3.83;;;22.50;99.90;;;;;;6143225;23;20443;-92
2023/07/04 14:15:05;;;;;;;3.80;3.27;;;22.60;99.90;;;;;;6136733;23;20573;-91
2023/07/04 14:17:39;;;;;;;4.90;3.57;;;;;;;;;;6148305;23;20937;-91
2023/07/04 14:20:21;;;;;;;5.00;3.30;;;22.40;1.00;;;;;;6151410;23;20468;-91
2023/07/04 14:22:56;;;;;;;4.27;3.00;;;22.50;99.90;;;;;;6149125;23;20429;-91
2023/07/04 14:25:47;;;;;;;5.90;3.90;;;22.70;99.90;;;;;;6125091;23;20463;-91
2023/07/04 14:28:26;;;;;;;3.20;2.87;;;22.70;99.90;;;;;;6151326;23;20416;-92
2023/07/04 14:31:06;;;;;;;4.80;3.63;;;22.80;99.90;;;;;;6149584;23;20484;-91
2023/07/04 14:33:38;;;;;;;5.73;4.20;;;22.50;1.00;;;;;;6143669;23;20432;-93
2023/07/04 14:36:12;;;;;;;7.27;3.30;;;22.80;1.00;;;;;;6147360;23;20416;-91
2023/07/04 14:38:55;;;;;;;4.83;3.53;;;22.40;99.90;;;;;;6148982;23;20476;-91
2023/07/04 14:41:31;;;;;;;4.90;3.50;;;22.50;99.90;;;;;;6152157;23;20408;-90
2023/07/04 14:44:21;;;;;;;3.40;3.13;;;22.50;99.90;;;;;;6153411;23;20420;-92
2023/07/04 14:47:06;;;;;;;8.33;3.57;;;22.60;99.90;;;;;;6153091;23;20420;-92
2023/07/04 14:49:38;;;;;;;7.27;4.00;;;22.60;1.00;;;;;;6152583;23;20413;-91
2023/07/04 14:52:17;;;;;;;9.57;3.40;;;22.80;99.90;;;;;;6149118;23;20449;-91
2023/07/04 14:54:47;;;;;;;5.60;3.83;;;;;;;;;;6148529;23;20413;-92
2023/07/04 14:57:36;;;;;;;4.70;4.30;;;22.60;99.90;;;;;;6146468;23;20420;-92
2023/07/04 15:00:27;;;;;;;4.60;3.00;;;22.40;99.90;;;;;;6136418;23;20413;-91
2023/07/04 15:03:02;;;;;;;6.83;3.53;;;22.30;99.90;;;;;;6143232;23;20433;-91
2023/07/04 15:05:36;;;;;;;5.03;3.40;;;21.90;1.00;;;;;;6142472;23;20389;-92
2023/07/04 15:08:06;;;;;;;4.70;3.67;;;22.20;1.00;;;;;;6132947;23;20470;-92
2023/07/04 15:10:34;;;;;;;5.50;3.80;;;;;;;;;;6140424;23;20734;-91
2023/07/04 15:13:14;;;;;;;7.30;3.70;;;22.40;99.90;;;;;;6142611;23;20413;-91
2023/07/04 15:16:01;;;;;;;3.80;3.50;;;22.60;99.90;;;;;;6146830;23;20405;-92
2023/07/04 15:18:43;;;;;;;5.93;3.80;;;22.90;1.00;;;;;;6151926;23;20465;-92
2023/07/04 15:21:11;;;;;;;7.60;4.60;;;;;;;;;;6152718;23;20413;-92
2023/07/04 15:23:45;;;;;;;8.37;4.30;;;23.00;99.90;;;;;;6151928;23;20433;-90
2023/07/04 15:26:21;;;;;;;7.20;5.43;;;23.10;99.90;;;;;;6147064;23;20405;-91
2023/07/04 15:28:54;;;;;;;7.20;4.70;;;23.00;99.90;;;;;;6152710;23;20384;-91
2023/07/04 15:34:04;;;;;;;4.47;3.90;;;;;;;;;;6139101;23;20424;-91
2023/07/04 15:36:34;;;;;;;5.87;3.53;;;;;;;;;;6144778;23;20398;-91
2023/07/04 15:39:19;;;;;;;6.37;4.70;;;22.60;99.90;;;;;;6145895;23;20472;-92
2023/07/04 15:41:52;;;;;;;6.17;4.03;;;22.40;99.90;;;;;;6153633;23;20421;-93
2023/07/04 15:44:29;;;;;;;6.30;3.90;;;22.30;99.90;;;;;;6152588;23;20398;-94
2023/07/04 15:47:08;;;;;;;5.67;4.87;;;22.10;1.00;;;;;;6153360;23;20409;-93
2023/07/04 15:50:05;;;;;;;4.47;3.40;;;22.10;99.90;;;;;;6155056;23;20409;-92
2023/07/04 15:52:47;;;;;;;9.13;4.43;;;21.70;1.00;;;;;;6154787;23;20469;-90
2023/07/04 15:55:31;;;;;;;7.40;4.33;;;22.00;99.90;;;;;;6154552;23;20421;-91
2023/07/04 15:58:07;;;;;;;5.30;4.60;;;22.10;1.00;;;;;;6154454;23;20449;-92
2023/07/04 16:00:42;;;;;;;8.00;4.20;;;22.00;99.90;;;;;;6153571;23;20460;-92
2023/07/04 16:03:27;;;;;;;7.10;4.47;;;22.00;99.90;;;;;;6153515;23;20424;-92
2023/07/04 16:06:06;;;;;;;9.83;6.87;;;22.30;1.00;;;;;;6149258;23;20397;-93
2023/07/04 16:08:47;;;;;;;7.20;5.40;;;22.00;99.90;;;;;;6145399;23;20397;-91
2023/07/04 16:12:09;;;;;;;6.73;4.97;;;21.90;99.90;;;;;;6149119;23;20480;-91
2023/07/04 16:14:45;;;;;;;7.77;5.50;;;21.60;1.00;;;;;;6151899;23;20376;-91
2023/07/04 16:17:50;;;;;;;6.80;4.77;;;21.80;99.90;;;;;;6154215;23;20396;-91
2023/07/04 16:21:12;;;;;;;8.17;4.80;;;22.10;1.00;;;;;;6148916;23;20393;-92
2023/07/04 16:23:47;;;;;;;5.53;4.83;;;;;;;;;;6147370;23;20423;-92
2023/07/04 16:26:29;;;;;;;5.13;3.93;;;21.90;1.00;;;;;;6148792;23;20404;-91
2023/07/04 16:35:01;;;;;;;6.60;5.00;;;21.90;99.90;;;;;;6147428;23;20433;-91
2023/07/04 16:41:10;;;;;;;8.50;3.80;;;21.90;99.90;;;;;;6098048;23;20417;-92
2023/07/04 16:44:09;;;;;;;5.33;3.87;;;21.90;99.90;;;;;;6124966;23;20502;-91
2023/07/04 16:49:34;;;;;;;9.90;4.30;;;22.00;99.90;;;;;;6154648;23;20438;-92
2023/07/04 16:52:20;;;;;;;9.50;4.20;;;22.20;99.90;;;;;;6184147;23;20423;-91
2023/07/04 16:54:57;;;;;;;11.73;4.40;;;21.80;99.90;;;;;;6175217;23;20395;-92
2023/07/04 16:57:43;;;;;;;6.27;4.00;;;21.80;99.90;;;;;;6184175;23;20400;-90
2023/07/04 17:00:28;;;;;;;8.13;3.60;;;22.00;1.00;;;;;;6184376;23;20397;-92
2023/07/04 17:02:56;;;;;;;4.97;3.63;;;;;;;;;;6176209;23;20890;-90
2023/07/04 17:05:22;;;;;;;5.30;3.67;;;21.60;99.90;;;;;;6171063;23;20400;-90
2023/07/04 17:07:51;;;;;;;6.03;3.80;;;21.70;99.90;;;;;;6169309;23;20405;-90
2023/07/04 17:10:18;;;;;;;5.57;4.53;;;21.80;99.90;;;;;;6167637;23;20408;-90
2023/07/04 17:12:45;;;;;;;9.73;4.63;;;21.60;99.90;;;;;;6169800;23;20814;-89
2023/07/04 17:15:12;;;;;;;5.57;3.97;;;21.50;99.90;;;;;;6177588;23;20420;-89
2023/07/04 17:17:39;;;;;;;3.87;3.33;;;21.50;99.90;;;;;;6180864;23;20452;-89
2023/07/04 17:20:07;;;;;;;6.10;3.67;;;21.40;99.90;;;;;;6183389;23;20447;-88
2023/07/04 17:22:34;;;;;;;5.67;3.77;;;21.40;1.00;;;;;;6183590;23;20396;-88
2023/07/04 17:25:02;;;;;;;8.10;3.63;;;21.30;99.90;;;;;;6171220;23;20476;-89
2023/07/04 17:27:29;;;;;;;4.70;3.97;;;21.40;99.90;;;;;;6170983;23;20416;-90
2023/07/04 17:29:56;;;;;;;7.87;3.93;;;20.40;99.90;;;;;;6179432;23;20411;-90
2023/07/04 17:32:24;;;;;;;3.47;3.17;;;;;;;;;;6181393;23;20412;-90
2023/07/04 17:34:51;;;;;;;4.33;3.70;;;;;;;;;;6174880;23;20396;-89
2023/07/04 17:37:18;;;;;;;6.30;3.20;;;20.90;1.00;;;;;;6176310;23;20415;-90
2023/07/04 17:39:45;;;;;;;7.57;3.60;;;;;;;;;;6177156;23;20468;-89
2023/07/04 17:42:14;;;;;;;6.90;3.23;;;21.20;99.90;;;;;;6175789;23;20408;-90
2023/07/04 17:44:41;;;;;;;5.83;3.23;;;21.10;99.90;;;;;;6174204;23;20428;-89
2023/07/04 17:47:08;;;;;;;3.37;3.07;;;21.10;99.90;;;;;;6175430;23;20400;-89
2023/07/04 17:49:35;;;;;;;7.03;3.53;;;21.10;99.90;;;;;;6175552;23;20380;-90
2023/07/04 17:52:02;;;;;;;11.03;6.40;;;21.10;99.90;;;;;;6170406;23;20396;-90
2023/07/04 17:54:29;;;;;;;6.60;3.13;;;;;;;;;;6170954;23;20432;-89
2023/07/04 17:56:56;;;;;;;6.00;3.20;;;21.00;99.90;;;;;;6169758;23;20931;-87
2023/07/04 17:59:24;;;;;;;7.30;3.57;;;21.00;99.90;;;;;;6169072;23;20440;-89
2023/07/04 18:01:52;;;;;;;8.77;4.77;;;;;;;;;;6170346;23;20495;-90
2023/07/04 18:04:21;;;;;;;5.43;3.80;;;20.90;99.90;;;;;;6171466;23;20443;-90
2023/07/04 18:06:50;;;;;;;7.00;4.37;;;;;;;;;;6169959;23;20422;-89
2023/07/04 18:09:17;;;;;;;6.50;4.10;;;;;;;;;;6176044;23;20392;-89
2023/07/04 18:11:44;;;;;;;8.13;5.53;;;20.80;99.90;;;;;;6172363;23;20506;-88
2023/07/04 18:14:11;;;;;;;4.97;3.73;;;20.70;99.90;;;;;;6167869;23;20428;-89
2023/07/04 18:16:40;;;;;;;6.20;3.57;;;20.70;99.90;;;;;;6168772;23;20428;-89
2023/07/04 18:19:08;;;;;;;4.83;3.93;;;;;;;;;;6169222;23;21027;-89
2023/07/04 18:21:35;;;;;;;5.07;3.40;;;;;;;;;;6169143;23;20408;-89
2023/07/04 18:24:03;;;;;;;6.27;4.00;;;20.70;99.90;;;;;;6168330;23;20420;-89
2023/07/04 18:26:31;;;;;;;5.30;3.60;;;20.70;99.90;;;;;;6167670;23;20427;-89
2023/07/04 18:28:58;;;;;;;4.53;4.10;;;20.70;99.90;;;;;;6175349;23;20436;-88
2023/07/04 18:31:27;;;;;;;4.63;4.23;;;20.70;99.90;;;;;;6176097;23;20408;-89
2023/07/04 18:33:59;;;;;;;11.40;5.50;;;20.60;99.90;;;;;;6169836;23;20457;-89
2023/07/04 18:36:28;;;;;;;8.30;4.10;;;20.60;99.90;;;;;;6177582;23;20404;-89
2023/07/04 18:38:55;;;;;;;7.90;4.20;;;;;;;;;;6175563;23;20467;-89
2023/07/04 18:41:24;;;;;;;7.17;3.70;;;20.50;99.90;;;;;;6180839;23;20393;-89
2023/07/04 18:43:51;;;;;;;6.40;4.17;;;20.50;99.90;;;;;;6175187;23;20412;-89
2023/07/04 18:46:22;;;;;;;5.87;3.83;;;20.50;99.90;;;;;;6169439;23;20412;-90
2023/07/04 18:48:50;;;;;;;6.43;3.87;;;;;;;;;;6169862;23;20769;-88
2023/07/04 18:51:20;;;;;;;5.63;3.97;;;20.40;99.90;;;;;;6174730;23;20404;-90
2023/07/04 18:53:47;;;;;;;7.10;3.80;;;20.10;1.00;;;;;;6175183;23;20424;-89
2023/07/04 18:56:14;;;;;;;5.77;3.20;;;20.40;99.90;;;;;;6175900;23;20397;-89
2023/07/04 18:58:43;;;;;;;4.97;4.07;;;20.40;99.90;;;;;;6173237;23;20443;-89
2023/07/04 19:01:12;;;;;;;4.40;4.00;;;20.50;99.90;;;;;;6171973;23;20412;-89
2023/07/04 19:03:38;;;;;;;5.90;3.30;;;20.30;99.90;;;;;;6165194;23;20995;-89
2023/07/04 19:06:05;;;;;;;6.20;3.90;;;20.30;99.90;;;;;;6168554;23;20964;-89
2023/07/04 19:08:34;;;;;;;4.47;3.13;;;20.30;99.90;;;;;;6171357;23;20432;-90
2023/07/04 19:11:02;;;;;;;4.77;3.40;;;20.20;99.90;;;;;;6184389;23;20447;-89
2023/07/04 19:13:30;;;;;;;11.83;7.70;;;20.00;99.90;;;;;;6174513;23;20416;-90
2023/07/04 19:15:58;;;;;;;4.93;4.27;;;20.40;99.90;;;;;;6175652;23;20798;-90
2023/07/04 19:18:26;;;;;;;7.20;4.70;;;20.10;99.90;;;;;;6178197;23;20436;-90
2023/07/04 19:20:54;;;;;;;9.03;5.13;;;20.10;99.90;;;;;;6180916;23;20405;-90
2023/07/04 19:23:21;;;;;;;5.60;3.60;;;19.90;99.90;;;;;;6174981;23;20451;-90
2023/07/04 19:25:49;;;;;;;8.13;4.57;;;19.90;99.90;;;;;;6170795;23;20404;-90
2023/07/04 19:28:16;;;;;;;7.03;4.57;;;19.90;99.90;;;;;;6175869;23;20448;-90
2023/07/04 19:30:44;;;;;;;6.00;3.87;;;19.60;99.90;;;;;;6181953;23;20431;-89
2023/07/04 19:33:11;;;;;;;3.90;3.60;;;19.80;99.90;;;;;;6172186;23;20435;-89
2023/07/04 19:35:43;;;;;;;7.50;3.80;;;19.70;99.90;;;;;;6171560;23;20412;-90
2023/07/04 19:38:11;;;;;;;12.60;4.87;;;;;;;;;;6171575;23;20388;-90
2023/07/04 19:40:38;;;;;;;5.77;4.20;;;19.50;1.00;;;;;;6171013;23;20439;-90
2023/07/04 19:43:07;;;;;;;7.20;4.60;;;19.40;99.90;;;;;;6174270;23;20412;-90
2023/07/04 19:45:33;;;;;;;7.77;5.33;;;19.20;99.90;;;;;;6185482;23;20392;-86
2023/07/04 19:48:01;;;;;;;12.53;6.50;;;;;;;;;;6183404;23;20400;-90
2023/07/04 19:50:28;;;;;;;7.73;5.53;;;;;;;;;;6184786;23;20428;-88
2023/07/04 19:52:55;;;;;;;7.90;6.57;;;19.40;99.90;;;;;;6176213;23;20436;-90
2023/07/04 19:55:22;;;;;;;6.00;5.47;;;18.70;99.90;;;;;;6173247;23;20421;-90
2023/07/04 19:57:50;;;;;;;9.63;5.43;;;19.20;99.90;;;;;;6173322;23;20396;-90
2023/07/04 20:00:19;;;;;;;8.30;7.23;;;18.80;1.00;;;;;;6177665;23;20451;-89
2023/07/04 20:02:46;;;;;;;13.13;6.50;;;;;;;;;;6184567;23;20443;-88
2023/07/04 20:05:13;;;;;;;8.40;5.27;;;19.00;99.90;;;;;;6185382;23;20400;-87
2023/07/04 20:07:40;;;;;;;7.70;5.90;;;18.70;1.00;;;;;;6185194;23;20444;-87
2023/07/04 20:10:08;;;;;;;10.47;6.80;;;;;;;;;;6185051;23;20383;-89
2023/07/04 20:12:35;;;;;;;7.13;5.37;;;;;;;;;;6185074;23;20391;-87
2023/07/04 20:15:02;;;;;;;6.50;5.17;;;19.10;1.00;;;;;;6185132;23;20387;-89
2023/07/04 20:17:31;;;;;;;6.97;5.67;;;18.50;1.00;;;;;;6184794;23;20419;-89